createdAt,value
2018-05-15T00:01:01.101Z,11.30
2018-05-15T00:03:28.513Z,10.98
2018-05-15T00:05:55.936Z,10.25
2018-05-15T00:08:23.356Z,10.30
2018-05-15T00:10:50.788Z,12.70
2018-05-15T00:13:18.225Z,15.77
2018-05-15T00:15:45.644Z,13.62
2018-05-15T00:18:13.076Z,10.45
2018-05-15T00:20:40.490Z,9.85
2018-05-15T00:23:07.901Z,8.73
2018-05-15T00:25:35.320Z,11.18
2018-05-15T00:28:02.754Z,20.42
2018-05-15T00:30:30.176Z,13.02
2018-05-15T00:32:57.598Z,12.23
2018-05-15T00:35:25.031Z,11.65
2018-05-15T00:37:52.445Z,12.20
2018-05-15T00:40:19.864Z,12.82
2018-05-15T00:42:47.281Z,9.15
2018-05-15T00:45:14.700Z,11.48
2018-05-15T00:47:42.109Z,7.82
2018-05-15T00:50:09.542Z,12.15
2018-05-15T00:52:36.961Z,11.75
2018-05-15T00:55:16.172Z,12.98
2018-05-15T00:57:43.613Z,10.65
2018-05-15T01:00:11.032Z,10.27
2018-05-15T01:02:38.456Z,11.93
2018-05-15T01:05:05.885Z,14.68
2018-05-15T01:07:33.305Z,14.90
2018-05-15T01:10:00.733Z,10.45
2018-05-15T01:12:28.145Z,15.43
2018-05-15T01:14:55.569Z,11.68
2018-05-15T01:17:22.988Z,13.43
2018-05-15T01:19:50.408Z,14.25
2018-05-15T01:22:17.836Z,14.18
2018-05-15T01:24:45.252Z,11.95
2018-05-15T01:27:12.684Z,12.80
2018-05-15T01:29:40.108Z,14.05
2018-05-15T01:32:07.532Z,14.25
2018-05-15T01:34:34.944Z,9.98
2018-05-15T01:37:02.367Z,13.50
2018-05-15T01:39:29.775Z,11.30
2018-05-15T01:41:57.205Z,12.02
2018-05-15T01:44:24.624Z,12.05
2018-05-15T01:46:52.052Z,13.10
2018-05-15T01:49:19.469Z,10.32
2018-05-15T01:51:46.904Z,12.73
2018-05-15T01:54:14.320Z,11.15
2018-05-15T01:56:41.744Z,6.03
2018-05-15T01:59:09.151Z,9.15
2018-05-15T02:01:36.588Z,12.32
2018-05-15T02:04:03.999Z,10.63
2018-05-15T02:06:31.417Z,9.90
2018-05-15T02:08:58.841Z,10.60
2018-05-15T02:11:26.264Z,17.33
2018-05-15T02:13:53.680Z,10.88
2018-05-15T02:16:21.105Z,10.48
2018-05-15T02:18:48.515Z,9.18
2018-05-15T02:21:15.936Z,12.30
2018-05-15T02:23:43.386Z,11.25
2018-05-15T02:26:10.804Z,13.00
2018-05-15T02:28:38.231Z,12.48
2018-05-15T02:31:05.668Z,10.32
2018-05-15T02:33:33.072Z,10.05
2018-05-15T02:36:00.496Z,11.23
2018-05-15T02:38:27.913Z,7.70
2018-05-15T02:40:55.338Z,9.55
2018-05-15T02:43:22.747Z,8.82
2018-05-15T02:45:50.156Z,9.45
2018-05-15T02:48:17.575Z,11.50
2018-05-15T02:50:44.997Z,8.52
2018-05-15T02:53:12.413Z,11.90
2018-05-15T02:55:39.823Z,8.85
2018-05-15T02:58:07.228Z,8.23
2018-05-15T03:00:34.653Z,6.78
2018-05-15T03:03:02.075Z,9.50
2018-05-15T03:05:29.475Z,10.32
2018-05-15T03:07:56.892Z,8.43
2018-05-15T03:10:24.308Z,8.55
2018-05-15T03:12:51.738Z,9.52
2018-05-15T03:15:19.153Z,10.95
2018-05-15T03:17:46.578Z,9.73
2018-05-15T03:20:13.980Z,8.85
2018-05-15T03:22:41.405Z,9.43
2018-05-15T03:25:08.817Z,12.25
2018-05-15T03:27:36.229Z,6.70
2018-05-15T03:30:03.647Z,10.05
2018-05-15T03:32:31.057Z,8.95
2018-05-15T03:34:58.464Z,7.40
2018-05-15T03:37:25.893Z,10.30
2018-05-15T03:39:53.300Z,10.07
2018-05-15T03:42:20.720Z,9.90
2018-05-15T03:44:48.130Z,8.98
2018-05-15T03:47:15.548Z,13.50
2018-05-15T03:49:42.960Z,10.82
2018-05-15T03:52:10.394Z,11.93
2018-05-15T03:54:37.814Z,10.20
2018-05-15T03:57:05.231Z,10.85
2018-05-15T03:59:32.642Z,9.20
2018-05-15T04:02:11.980Z,11.27
2018-05-15T04:04:51.111Z,10.30
2018-05-15T04:07:30.352Z,7.45
2018-05-15T04:09:57.773Z,10.50
2018-05-15T04:12:25.189Z,9.27
2018-05-15T04:14:52.600Z,10.20
2018-05-15T04:17:20.031Z,11.57
2018-05-15T04:19:47.449Z,12.65
2018-05-15T04:22:14.872Z,11.27
2018-05-15T04:24:42.293Z,13.55
2018-05-15T04:27:09.720Z,11.55
2018-05-15T04:29:37.131Z,12.48
2018-05-15T04:32:04.556Z,12.10
2018-05-15T04:34:31.968Z,14.85
2018-05-15T04:36:59.389Z,12.07
2018-05-15T04:39:26.828Z,13.68
2018-05-15T04:41:54.237Z,16.27
2018-05-15T04:44:21.664Z,15.60
2018-05-15T04:46:49.089Z,20.88
2018-05-15T04:49:16.557Z,16.92
2018-05-15T04:51:43.942Z,19.23
2018-05-15T04:54:11.369Z,19.17
2018-05-15T04:56:38.783Z,20.83
2018-05-15T04:59:06.225Z,13.15
2018-05-15T05:01:33.648Z,16.65
2018-05-15T05:04:01.077Z,17.67
2018-05-15T05:06:28.488Z,14.87
2018-05-15T05:08:55.920Z,21.00
2018-05-15T05:11:23.368Z,17.42
2018-05-15T05:13:50.782Z,14.80
2018-05-15T05:16:18.192Z,15.80
2018-05-15T05:18:45.649Z,22.45
2018-05-15T05:21:13.061Z,19.67
2018-05-15T05:23:40.662Z,22.15
2018-05-15T05:26:08.069Z,15.93
2018-05-15T05:28:35.516Z,17.52
2018-05-15T05:31:02.932Z,19.70
2018-05-15T05:33:31.665Z,21.48
2018-05-15T05:35:59.084Z,23.45
2018-05-15T05:38:26.522Z,16.77
2018-05-15T05:40:53.933Z,20.80
2018-05-15T05:43:21.389Z,20.27
2018-05-15T05:45:48.805Z,19.33
2018-05-15T05:48:16.240Z,20.25
2018-05-15T05:50:43.669Z,23.70
2018-05-15T05:53:11.097Z,18.73
2018-05-15T05:55:38.512Z,22.00
2018-05-15T05:58:05.946Z,19.98
2018-05-15T06:00:33.369Z,21.37
2018-05-15T06:03:00.793Z,22.27
2018-05-15T06:05:28.227Z,19.52
2018-05-15T06:07:55.664Z,17.95
2018-05-15T06:10:23.077Z,17.48
2018-05-15T06:12:50.520Z,20.12
2018-05-15T06:15:17.932Z,17.95
2018-05-15T06:17:45.357Z,17.77
2018-05-15T06:20:12.776Z,19.55
2018-05-15T06:22:40.204Z,29.95
2018-05-15T06:25:07.650Z,24.15
2018-05-15T06:27:35.082Z,17.85
2018-05-15T06:30:02.483Z,21.12
2018-05-15T06:32:29.942Z,21.02
2018-05-15T06:34:57.320Z,22.17
2018-05-15T06:37:24.748Z,16.62
2018-05-15T06:39:52.188Z,16.98
2018-05-15T06:42:19.600Z,21.87
2018-05-15T06:44:47.038Z,19.05
2018-05-15T06:47:14.458Z,19.25
2018-05-15T06:49:41.884Z,18.48
2018-05-15T06:52:09.316Z,20.00
2018-05-15T06:54:36.740Z,21.20
2018-05-15T06:57:04.148Z,20.75
2018-05-15T06:59:31.572Z,24.25
2018-05-15T07:01:58.996Z,22.33
2018-05-15T07:04:26.451Z,28.62
2018-05-15T07:06:53.869Z,29.10
2018-05-15T07:09:21.297Z,28.83
2018-05-15T07:11:48.717Z,20.00
2018-05-15T07:14:16.148Z,18.62
2018-05-15T07:16:43.569Z,21.48
2018-05-15T07:19:10.983Z,17.75
2018-05-15T07:21:38.405Z,20.73
2018-05-15T07:24:05.834Z,21.92
2018-05-15T07:26:33.256Z,24.05
2018-05-15T07:29:00.686Z,24.92
2018-05-15T07:31:28.104Z,21.98
2018-05-15T07:33:55.538Z,23.08
2018-05-15T07:36:22.949Z,18.42
2018-05-15T07:38:50.384Z,27.33
2018-05-15T07:41:17.801Z,26.27
2018-05-15T07:43:45.228Z,26.90
2018-05-15T07:46:12.644Z,24.33
2018-05-15T07:48:40.096Z,18.80
2018-05-15T07:51:07.512Z,28.48
2018-05-15T07:53:34.985Z,29.00
2018-05-15T07:56:02.365Z,29.25
2018-05-15T07:58:29.786Z,26.37
2018-05-15T08:00:57.213Z,22.42
2018-05-15T08:03:24.628Z,30.15
2018-05-15T08:05:52.059Z,42.92
2018-05-15T08:08:19.475Z,43.05
2018-05-15T08:10:46.913Z,35.30
2018-05-15T08:13:14.333Z,34.92
2018-05-15T08:15:41.757Z,35.05
2018-05-15T08:18:09.187Z,36.03
2018-05-15T08:20:36.613Z,27.23
2018-05-15T08:23:04.037Z,29.98
2018-05-15T08:25:31.464Z,29.70
2018-05-15T08:27:58.885Z,27.20
2018-05-15T08:30:26.315Z,26.80
2018-05-15T08:32:53.733Z,36.78
2018-05-15T08:35:21.166Z,29.33
2018-05-15T08:37:48.688Z,41.85
2018-05-15T08:40:16.137Z,41.05
2018-05-15T08:42:43.585Z,38.53
2018-05-15T08:45:11.005Z,39.95
2018-05-15T08:47:38.436Z,61.70
2018-05-15T08:50:05.866Z,43.55
2018-05-15T08:52:33.282Z,51.60
2018-05-15T08:55:00.714Z,78.93
2018-05-15T08:57:28.143Z,37.38
2018-05-15T08:59:55.563Z,44.90
2018-05-15T09:02:22.990Z,58.87
2018-05-15T09:04:50.420Z,53.00
2018-05-15T09:07:19.075Z,61.65
2018-05-15T09:09:46.520Z,51.58
2018-05-15T09:12:13.947Z,46.45
2018-05-15T09:14:41.382Z,38.90
2018-05-15T09:17:08.806Z,48.40
2018-05-15T09:19:36.232Z,43.33
2018-05-15T09:22:03.652Z,80.43
2018-05-15T09:24:32.402Z,61.97
2018-05-15T09:27:00.594Z,61.13
2018-05-15T09:29:29.237Z,51.63
2018-05-15T09:31:56.654Z,55.33
2018-05-15T09:34:24.069Z,66.30
2018-05-15T09:36:51.501Z,58.17
2018-05-15T09:39:18.908Z,57.72
2018-05-15T09:41:46.337Z,62.72
2018-05-15T09:44:13.777Z,61.67
2018-05-15T09:46:41.189Z,43.30
2018-05-15T09:49:08.652Z,60.00
2018-05-15T09:51:36.108Z,60.35
2018-05-15T09:54:03.529Z,50.78
2018-05-15T09:56:31.457Z,51.67
2018-05-15T09:59:00.153Z,45.30
2018-05-15T10:01:27.589Z,46.40
2018-05-15T10:03:55.052Z,66.57
2018-05-15T10:06:22.476Z,70.40
2018-05-15T10:08:49.895Z,54.03
2018-05-15T10:11:17.353Z,62.55
2018-05-15T10:13:44.831Z,73.37
2018-05-15T10:16:12.306Z,86.03
2018-05-15T10:18:39.748Z,66.78
2018-05-15T10:21:07.190Z,76.97
2018-05-15T10:23:34.594Z,68.82
2018-05-15T10:26:02.029Z,54.08
2018-05-15T10:28:29.539Z,73.12
2018-05-15T10:30:57.028Z,78.43
2018-05-15T10:33:24.453Z,56.47
2018-05-15T10:35:51.925Z,69.10
2018-05-15T10:38:19.398Z,67.75
2018-05-15T10:40:46.840Z,108.12
2018-05-15T10:43:14.401Z,115.53
2018-05-15T10:45:41.873Z,106.93
2018-05-15T10:48:09.289Z,90.20
2018-05-15T10:50:36.714Z,89.15
2018-05-15T10:53:04.141Z,88.70
2018-05-15T10:55:31.564Z,98.55
2018-05-15T10:57:58.995Z,79.50
2018-05-15T11:00:26.447Z,92.53
2018-05-15T11:02:53.926Z,106.47
2018-05-15T11:05:21.360Z,104.25
2018-05-15T11:07:48.777Z,75.12
2018-05-15T11:10:16.195Z,73.40
2018-05-15T11:12:43.641Z,81.95
2018-05-15T11:15:11.052Z,113.30
2018-05-15T11:17:38.517Z,96.55
2018-05-15T11:20:17.768Z,79.05
2018-05-15T11:22:57.036Z,97.22
2018-05-15T11:25:24.451Z,78.53
2018-05-15T11:27:51.887Z,134.07
2018-05-15T11:30:19.333Z,122.37
2018-05-15T11:32:46.758Z,90.03
2018-05-15T11:35:14.173Z,92.70
2018-05-15T11:37:41.597Z,74.37
2018-05-15T11:40:09.009Z,80.72
2018-05-15T11:42:36.433Z,66.68
2018-05-15T11:45:03.869Z,62.97
2018-05-15T11:47:31.420Z,76.80
2018-05-15T11:49:59.415Z,87.43
2018-05-15T11:52:26.805Z,74.43
2018-05-15T11:54:53.921Z,81.00
2018-05-15T11:57:21.349Z,98.78
2018-05-15T11:59:48.854Z,112.10
2018-05-15T12:02:16.213Z,96.12
2018-05-15T12:04:43.629Z,91.78
2018-05-15T12:07:11.052Z,89.35
2018-05-15T12:09:38.485Z,87.70
2018-05-15T12:12:05.939Z,100.43
2018-05-15T12:14:33.368Z,86.35
2018-05-15T12:17:00.806Z,104.28
2018-05-15T12:19:28.225Z,105.55
2018-05-15T12:21:55.652Z,85.35
2018-05-15T12:24:23.097Z,76.78
2018-05-15T12:26:50.524Z,95.82
2018-05-15T12:29:17.937Z,93.12
2018-05-15T12:31:45.384Z,75.57
2018-05-15T12:34:12.812Z,86.55
2018-05-15T12:36:40.224Z,94.40
2018-05-15T12:39:07.652Z,72.07
2018-05-15T12:41:35.158Z,85.12
2018-05-15T12:44:02.524Z,97.28
2018-05-15T12:46:29.945Z,84.97
2018-05-15T12:48:57.388Z,94.25
2018-05-15T12:51:24.820Z,110.57
2018-05-15T12:53:52.240Z,97.85
2018-05-15T12:56:19.667Z,106.90
2018-05-15T12:58:47.100Z,114.62
2018-05-15T13:01:14.533Z,122.13
2018-05-15T13:03:41.982Z,62.90
2018-05-15T13:06:09.394Z,88.90
2018-05-15T13:08:36.839Z,89.43
2018-05-15T13:11:04.284Z,89.55
2018-05-15T13:13:31.813Z,87.65
2018-05-15T13:15:59.224Z,99.35
2018-05-15T13:18:26.733Z,59.40
2018-05-15T13:20:54.105Z,64.53
2018-05-15T13:23:21.548Z,63.30
2018-05-15T13:25:48.970Z,88.70
2018-05-15T13:28:16.388Z,64.15
2018-05-15T13:30:43.800Z,69.32
2018-05-15T13:33:11.239Z,109.55
2018-05-15T13:35:39.569Z,112.62
2018-05-15T13:38:07.024Z,91.00
2018-05-15T13:40:34.434Z,67.47
2018-05-15T13:43:01.860Z,89.00
2018-05-15T13:45:29.289Z,89.25
2018-05-15T13:47:56.733Z,102.90
2018-05-15T13:50:24.155Z,97.40
2018-05-15T13:52:51.595Z,117.80
2018-05-15T13:55:19.013Z,77.40
2018-05-15T13:57:46.437Z,85.32
2018-05-15T14:00:13.873Z,63.65
2018-05-15T14:02:41.293Z,92.65
2018-05-15T14:05:08.708Z,74.93
2018-05-15T14:07:36.134Z,86.93
2018-05-15T14:10:03.549Z,58.70
2018-05-15T14:12:30.968Z,46.70
2018-05-15T14:14:58.405Z,63.83
2018-05-15T14:17:25.821Z,78.72
2018-05-15T14:19:53.265Z,86.87
2018-05-15T14:22:20.677Z,56.88
2018-05-15T14:24:48.142Z,59.60
2018-05-15T14:27:15.524Z,85.03
2018-05-15T14:29:42.944Z,71.45
2018-05-15T14:32:10.364Z,84.18
2018-05-15T14:34:37.794Z,69.05
2018-05-15T14:37:05.260Z,99.87
2018-05-15T14:39:32.708Z,99.53
2018-05-15T14:42:11.783Z,82.55
2018-05-15T14:44:39.245Z,76.37
2018-05-15T14:47:06.651Z,86.40
2018-05-15T14:49:34.574Z,104.18
2018-05-15T14:52:01.984Z,80.75
2018-05-15T14:54:29.409Z,76.70
2018-05-15T14:56:56.833Z,61.65
2018-05-15T14:59:24.265Z,85.35
2018-05-15T15:01:51.693Z,84.45
2018-05-15T15:04:19.131Z,112.07
2018-05-15T15:06:46.588Z,67.82
2018-05-15T15:09:14.013Z,49.65
2018-05-15T15:11:41.436Z,63.60
2018-05-15T15:14:08.858Z,51.00
2018-05-15T15:16:36.268Z,56.08
2018-05-15T15:19:03.710Z,48.95
2018-05-15T15:21:31.121Z,47.22
2018-05-15T15:23:58.548Z,41.08
2018-05-15T15:26:25.965Z,50.03
2018-05-15T15:28:53.388Z,65.80
2018-05-15T15:31:20.809Z,53.13
2018-05-15T15:33:48.228Z,63.30
2018-05-15T15:36:15.650Z,56.92
2018-05-15T15:38:43.081Z,40.70
2018-05-15T15:41:10.505Z,49.45
2018-05-15T15:43:37.932Z,54.58
2018-05-15T15:46:05.349Z,45.10
2018-05-15T15:48:32.774Z,54.28
2018-05-15T15:51:00.197Z,54.38
2018-05-15T15:53:27.608Z,43.95
2018-05-15T15:55:55.070Z,51.78
2018-05-15T15:58:22.459Z,52.83
2018-05-15T16:00:49.881Z,45.85
2018-05-15T16:03:17.291Z,43.90
2018-05-15T16:05:44.730Z,43.65
2018-05-15T16:08:12.148Z,50.12
2018-05-15T16:10:39.574Z,54.97
2018-05-15T16:13:06.993Z,38.92
2018-05-15T16:15:34.430Z,49.33
2018-05-15T16:18:01.879Z,30.15
2018-05-15T16:20:29.299Z,38.25
2018-05-15T16:22:56.716Z,52.97
2018-05-15T16:25:24.132Z,39.15
2018-05-15T16:27:51.550Z,38.13
2018-05-15T16:30:18.987Z,41.58
2018-05-15T16:32:46.401Z,26.87
2018-05-15T16:35:13.836Z,47.15
2018-05-15T16:37:41.281Z,40.55
2018-05-15T16:40:08.718Z,46.78
2018-05-15T16:42:36.138Z,38.13
2018-05-15T16:45:03.575Z,51.30
2018-05-15T16:47:31.069Z,43.05
2018-05-15T16:49:58.432Z,40.30
2018-05-15T16:52:25.860Z,41.47
2018-05-15T16:54:53.282Z,31.23
2018-05-15T16:57:20.700Z,32.78
2018-05-15T16:59:48.128Z,32.90
2018-05-15T17:02:15.633Z,31.15
2018-05-15T17:04:43.044Z,25.62
2018-05-15T17:07:10.464Z,26.17
2018-05-15T17:09:37.893Z,43.45
2018-05-15T17:12:05.342Z,40.47
2018-05-15T17:14:32.769Z,29.80
2018-05-15T17:17:00.184Z,29.35
2018-05-15T17:19:27.709Z,40.60
2018-05-15T17:21:55.170Z,37.80
2018-05-15T17:24:22.632Z,35.05
2018-05-15T17:26:50.064Z,39.17
2018-05-15T17:29:17.535Z,28.25
2018-05-15T17:31:44.968Z,54.58
2018-05-15T17:34:12.384Z,43.72
2018-05-15T17:36:39.816Z,34.83
2018-05-15T17:39:07.224Z,33.75
2018-05-15T17:41:34.653Z,28.23
2018-05-15T17:44:02.065Z,25.37
2018-05-15T17:46:29.484Z,29.50
2018-05-15T17:48:56.976Z,28.27
2018-05-15T17:51:24.399Z,24.48
2018-05-15T17:53:51.813Z,39.60
2018-05-15T17:56:19.239Z,35.83
2018-05-15T17:58:46.647Z,31.92
2018-05-15T18:01:14.151Z,44.47
2018-05-15T18:03:41.572Z,34.83
2018-05-15T18:06:08.992Z,26.17
2018-05-15T18:08:36.549Z,31.33
2018-05-15T18:11:03.945Z,38.00
2018-05-15T18:13:31.390Z,36.35
2018-05-15T18:15:58.880Z,33.53
2018-05-15T18:18:26.345Z,28.87
2018-05-15T18:20:53.765Z,27.25
2018-05-15T18:23:21.176Z,28.48
2018-05-15T18:25:48.609Z,27.35
2018-05-15T18:28:16.040Z,28.45
2018-05-15T18:30:43.509Z,38.92
2018-05-15T18:33:11.365Z,38.00
2018-05-15T18:35:38.687Z,53.28
2018-05-15T18:38:06.149Z,49.17
2018-05-15T18:40:33.581Z,33.05
2018-05-15T18:43:01.005Z,38.03
2018-05-15T18:45:28.527Z,40.58
2018-05-15T18:47:55.844Z,31.67
2018-05-15T18:50:23.277Z,39.53
2018-05-15T18:52:50.713Z,38.22
2018-05-15T18:55:18.904Z,35.35
2018-05-15T18:57:46.312Z,41.75
2018-05-15T19:00:13.733Z,38.00
2018-05-15T19:02:41.445Z,41.97
2018-05-15T19:05:09.203Z,36.97
2018-05-15T19:07:36.658Z,37.35
2018-05-15T19:10:04.077Z,38.70
2018-05-15T19:12:31.561Z,30.15
2018-05-15T19:14:58.926Z,31.33
2018-05-15T19:17:26.349Z,35.63
2018-05-15T19:19:54.608Z,24.95
2018-05-15T19:22:22.217Z,30.15
2018-05-15T19:24:49.633Z,46.40
2018-05-15T19:27:17.145Z,39.80
2018-05-15T19:29:44.475Z,32.40
2018-05-15T19:32:16.849Z,32.80
2018-05-15T19:34:49.772Z,25.33
2018-05-15T19:37:17.198Z,19.05
2018-05-15T19:39:44.663Z,25.08
2018-05-15T19:42:12.055Z,21.25
2018-05-15T19:44:39.477Z,12.75
2018-05-15T19:47:06.912Z,21.60
2018-05-15T19:49:34.329Z,32.10
2018-05-15T19:52:01.753Z,30.33
2018-05-15T19:54:29.226Z,24.75
2018-05-15T19:56:56.602Z,21.87
2018-05-15T19:59:24.012Z,20.30
2018-05-15T20:01:51.493Z,17.70
2018-05-15T20:04:18.861Z,26.48
2018-05-15T20:06:46.279Z,29.30
2018-05-15T20:09:13.684Z,26.65
2018-05-15T20:11:41.141Z,19.52
2018-05-15T20:14:08.549Z,22.50
2018-05-15T20:16:35.974Z,20.08
2018-05-15T20:19:03.393Z,23.67
2018-05-15T20:21:30.829Z,26.45
2018-05-15T20:23:58.244Z,29.23
2018-05-15T20:26:25.673Z,22.67
2018-05-15T20:28:53.084Z,28.73
2018-05-15T20:31:20.522Z,21.45
2018-05-15T20:33:47.973Z,22.23
2018-05-15T20:36:15.396Z,29.27
2018-05-15T20:38:42.816Z,23.58
2018-05-15T20:41:10.237Z,19.08
2018-05-15T20:43:37.668Z,21.70
2018-05-15T20:46:05.086Z,21.62
2018-05-15T20:48:32.512Z,25.88
2018-05-15T20:50:59.925Z,23.27
2018-05-15T20:53:27.377Z,25.10
2018-05-15T20:55:54.799Z,37.13
2018-05-15T20:58:22.221Z,18.33
2018-05-15T21:00:49.645Z,25.85
2018-05-15T21:03:17.077Z,21.58
2018-05-15T21:05:44.487Z,21.75
2018-05-15T21:08:11.921Z,33.70
2018-05-15T21:10:39.344Z,25.42
2018-05-15T21:13:06.764Z,27.17
2018-05-15T21:15:34.192Z,29.15
2018-05-15T21:18:01.625Z,16.90
2018-05-15T21:20:29.046Z,17.85
2018-05-15T21:22:56.472Z,22.50
2018-05-15T21:25:23.896Z,16.02
2018-05-15T21:27:51.317Z,16.83
2018-05-15T21:30:18.735Z,19.77
2018-05-15T21:32:46.164Z,21.92
2018-05-15T21:35:13.584Z,13.00
2018-05-15T21:37:41.009Z,20.52
2018-05-15T21:40:08.427Z,18.25
2018-05-15T21:42:35.852Z,19.10
2018-05-15T21:45:03.266Z,20.50
2018-05-15T21:47:30.692Z,15.57
2018-05-15T21:49:58.137Z,14.30
2018-05-15T21:52:25.562Z,16.10
2018-05-15T21:54:52.984Z,12.75
2018-05-15T21:57:20.400Z,15.27
2018-05-15T21:59:47.819Z,16.70
2018-05-15T22:02:15.248Z,18.90
2018-05-15T22:04:42.664Z,17.80
2018-05-15T22:07:10.097Z,15.68
2018-05-15T22:09:37.517Z,17.17
2018-05-15T22:12:16.892Z,20.88
2018-05-15T22:14:56.021Z,13.30
2018-05-15T22:17:35.272Z,16.40
2018-05-15T22:20:14.424Z,20.70
2018-05-15T22:22:41.311Z,22.23
2018-05-15T22:25:08.728Z,18.30
2018-05-15T22:27:36.148Z,15.70
2018-05-15T22:30:03.568Z,14.07
2018-05-15T22:32:30.984Z,14.73
2018-05-15T22:34:58.417Z,15.00
2018-05-15T22:37:25.832Z,14.05
2018-05-15T22:39:53.261Z,15.63
2018-05-15T22:42:20.681Z,13.23
2018-05-15T22:44:48.108Z,11.10
2018-05-15T22:47:15.528Z,11.90
2018-05-15T22:49:42.951Z,14.27
2018-05-15T22:52:10.405Z,13.70
2018-05-15T22:54:37.836Z,17.23
2018-05-15T22:57:05.253Z,17.40
2018-05-15T22:59:32.683Z,14.70
2018-05-15T23:02:00.092Z,14.77
2018-05-15T23:04:27.517Z,15.10
2018-05-15T23:06:54.929Z,14.77
2018-05-15T23:09:22.356Z,15.77
2018-05-15T23:11:49.775Z,15.00
2018-05-15T23:14:17.201Z,12.35
2018-05-15T23:16:44.615Z,14.70
2018-05-15T23:19:12.045Z,15.25
2018-05-15T23:21:39.461Z,22.20
2018-05-15T23:24:06.876Z,13.52
2018-05-15T23:26:34.297Z,13.80
2018-05-15T23:29:01.736Z,12.15
2018-05-15T23:31:29.149Z,16.87
2018-05-15T23:33:56.579Z,11.98
2018-05-15T23:36:24.010Z,14.40
2018-05-15T23:38:51.440Z,11.27
2018-05-15T23:41:18.861Z,13.35
2018-05-15T23:43:46.280Z,14.45
2018-05-15T23:46:13.736Z,13.32
2018-05-15T23:48:41.160Z,9.60
2018-05-15T23:51:08.597Z,11.57
2018-05-15T23:53:36.021Z,14.20
2018-05-15T23:56:03.441Z,11.77
2018-05-15T23:58:30.860Z,9.85
